createdAt,value
2023-01-19T00:00:49.891Z,-1.88
2023-01-19T00:03:17.836Z,-1.84
2023-01-19T00:05:44.456Z,-1.84
2023-01-19T00:08:17.048Z,-1.88
2023-01-19T00:10:47.580Z,-1.91
2023-01-19T00:13:14.274Z,-1.89
2023-01-19T00:15:41.038Z,-1.98
2023-01-19T00:18:09.711Z,-1.96
2023-01-19T00:20:37.311Z,-2.03
2023-01-19T00:23:04.682Z,-2.01
2023-01-19T00:25:31.567Z,-2.05
2023-01-19T00:28:00.440Z,-2.03
2023-01-19T00:30:27.795Z,-2.01
2023-01-19T00:32:54.272Z,-1.95
2023-01-19T00:35:20.747Z,-1.94
2023-01-19T00:37:47.276Z,-1.99
2023-01-19T00:40:14.008Z,-1.96
2023-01-19T00:42:40.569Z,-1.89
2023-01-19T00:45:20.836Z,-1.76
2023-01-19T00:47:48.177Z,-1.77
2023-01-19T00:50:16.732Z,-1.86
2023-01-19T00:52:43.931Z,-1.69
2023-01-19T00:55:11.464Z,-1.69
2023-01-19T00:57:38.716Z,-1.61
2023-01-19T01:00:06.519Z,-1.60
2023-01-19T01:02:33.743Z,-1.51
2023-01-19T01:05:02.751Z,-1.52
2023-01-19T01:07:29.843Z,-1.49
2023-01-19T01:09:56.708Z,-1.51
2023-01-19T01:12:23.255Z,-1.48
2023-01-19T01:14:49.898Z,-1.45
2023-01-19T01:17:16.476Z,-1.48
2023-01-19T01:19:42.945Z,-1.47
2023-01-19T01:22:09.642Z,-1.49
2023-01-19T01:24:36.111Z,-1.52
2023-01-19T01:27:02.601Z,-1.47
2023-01-19T01:29:29.077Z,-1.49
2023-01-19T01:31:55.619Z,-1.52
2023-01-19T01:34:22.111Z,-1.51
2023-01-19T01:36:48.589Z,-1.61
2023-01-19T01:39:15.053Z,-1.57
2023-01-19T01:41:41.533Z,-1.57
2023-01-19T01:44:49.558Z,-1.55
2023-01-19T01:47:31.100Z,-1.58
2023-01-19T01:50:19.505Z,-1.61
2023-01-19T01:53:06.989Z,-1.58
2023-01-19T01:55:42.773Z,-1.53
2023-01-19T01:58:09.318Z,-1.53
2023-01-19T02:00:54.415Z,-1.52
2023-01-19T02:03:22.636Z,-1.48
2023-01-19T02:05:49.156Z,-1.47
2023-01-19T02:08:49.357Z,-1.52
2023-01-19T02:11:34.517Z,-1.53
2023-01-19T02:14:00.987Z,-1.55
2023-01-19T02:16:27.535Z,-1.43
2023-01-19T02:18:54.009Z,-1.48
2023-01-19T02:21:46.818Z,-1.43
2023-01-19T02:24:13.377Z,-1.40
2023-01-19T02:26:47.128Z,-1.42
2023-01-19T02:29:15.610Z,-1.47
2023-01-19T02:31:42.080Z,-1.42
2023-01-19T02:34:10.153Z,-1.35
2023-01-19T02:36:58.198Z,-1.37
2023-01-19T02:39:30.894Z,-1.40
2023-01-19T02:42:06.301Z,-1.32
2023-01-19T02:44:32.764Z,-1.33
2023-01-19T02:46:59.261Z,-1.34
2023-01-19T02:49:28.021Z,-1.40
2023-01-19T02:51:54.510Z,-1.36
2023-01-19T02:54:36.603Z,-1.38
2023-01-19T02:57:18.600Z,-1.38
2023-01-19T03:00:02.671Z,-1.40
2023-01-19T03:02:44.014Z,-1.43
2023-01-19T03:05:46.531Z,-1.45
2023-01-19T03:08:31.191Z,-1.42
2023-01-19T03:11:05.546Z,-1.41
2023-01-19T03:13:52.461Z,-1.45
2023-01-19T03:16:22.788Z,-1.43
2023-01-19T03:18:55.386Z,-1.39
2023-01-19T03:21:23.610Z,-1.37
2023-01-19T03:23:50.369Z,-1.29
2023-01-19T03:26:19.811Z,-1.30
2023-01-19T03:28:46.288Z,-1.30
2023-01-19T03:31:21.060Z,-1.27
2023-01-19T03:33:49.953Z,-1.24
2023-01-19T03:36:23.543Z,-1.21
2023-01-19T03:38:50.353Z,-1.20
2023-01-19T03:41:17.530Z,-1.20
2023-01-19T03:43:43.992Z,-1.23
2023-01-19T03:46:11.357Z,-1.27
2023-01-19T03:48:37.949Z,-1.15
2023-01-19T03:51:06.049Z,-1.12
2023-01-19T03:53:32.561Z,-1.14
2023-01-19T03:55:59.050Z,-1.13
2023-01-19T03:58:25.565Z,-1.07
2023-01-19T04:00:52.136Z,-1.13
2023-01-19T04:03:18.874Z,-1.07
2023-01-19T04:05:45.338Z,-1.12
2023-01-19T04:08:12.022Z,-1.17
2023-01-19T04:10:38.842Z,-1.13
2023-01-19T04:13:05.474Z,-1.11
2023-01-19T04:15:33.027Z,-1.01
2023-01-19T04:18:00.651Z,-1.09
2023-01-19T04:20:28.211Z,-1.11
2023-01-19T04:22:58.773Z,-1.05
2023-01-19T04:25:25.452Z,-1.01
2023-01-19T04:27:53.025Z,-1.08
2023-01-19T04:30:19.596Z,-1.07
2023-01-19T04:32:46.200Z,-1.05
2023-01-19T04:35:12.675Z,-0.96
2023-01-19T04:37:39.443Z,-0.93
2023-01-19T04:40:06.586Z,-0.96
2023-01-19T04:42:33.067Z,-1.02
2023-01-19T04:44:59.777Z,-1.02
2023-01-19T04:47:26.284Z,-0.94
2023-01-19T04:49:52.757Z,-0.99
2023-01-19T04:52:19.519Z,-1.04
2023-01-19T04:54:46.003Z,-1.10
2023-01-19T04:57:12.488Z,-1.10
2023-01-19T04:59:38.985Z,-1.08
2023-01-19T05:02:05.500Z,-1.09
2023-01-19T05:04:32.053Z,-1.05
2023-01-19T05:06:58.657Z,-1.11
2023-01-19T05:09:25.985Z,-1.08
2023-01-19T05:11:52.459Z,-1.03
2023-01-19T05:14:18.949Z,-1.08
2023-01-19T05:16:45.440Z,-1.06
2023-01-19T05:19:12.250Z,-1.08
2023-01-19T05:21:38.880Z,-1.10
2023-01-19T05:24:05.639Z,-1.13
2023-01-19T05:26:32.102Z,-1.07
2023-01-19T05:28:58.561Z,-1.09
2023-01-19T05:31:25.144Z,-0.96
2023-01-19T05:33:51.756Z,-0.92
2023-01-19T05:36:20.884Z,-0.85
2023-01-19T05:38:47.343Z,-0.77
2023-01-19T05:41:14.222Z,-0.72
2023-01-19T05:43:40.777Z,-0.71
2023-01-19T05:46:07.234Z,-0.57
2023-01-19T05:48:33.755Z,-0.55
2023-01-19T05:51:00.326Z,-0.58
2023-01-19T05:53:27.104Z,-0.52
2023-01-19T05:55:53.720Z,-0.49
2023-01-19T05:58:20.185Z,-0.43
2023-01-19T06:00:47.063Z,-0.36
2023-01-19T06:03:13.625Z,-0.38
2023-01-19T06:05:40.181Z,-0.28
2023-01-19T06:08:06.933Z,-0.35
2023-01-19T06:10:33.441Z,-0.31
2023-01-19T06:13:00.279Z,-0.21
2023-01-19T06:15:26.940Z,-0.29
2023-01-19T06:17:53.419Z,-0.20
2023-01-19T06:20:19.951Z,-0.27
2023-01-19T06:22:47.596Z,-0.30
2023-01-19T06:25:14.115Z,-0.25
2023-01-19T06:27:43.984Z,-0.18
2023-01-19T06:30:11.048Z,-0.16
2023-01-19T06:32:37.638Z,-0.14
2023-01-19T06:35:04.433Z,-0.18
2023-01-19T06:37:31.565Z,-0.11
2023-01-19T06:39:58.057Z,-0.06
2023-01-19T06:42:24.561Z,-0.06
2023-01-19T06:44:51.034Z,-0.13
2023-01-19T06:47:17.560Z,-0.12
2023-01-19T06:49:44.095Z,-0.13
2023-01-19T06:52:18.318Z,-0.03
2023-01-19T06:54:45.607Z,-0.19
2023-01-19T06:57:12.371Z,-0.21
2023-01-19T06:59:39.019Z,-0.23
2023-01-19T07:02:26.913Z,-0.25
2023-01-19T07:04:51.967Z,-0.28
2023-01-19T07:07:19.121Z,-0.32
2023-01-19T07:09:45.610Z,-0.35
2023-01-19T07:12:12.071Z,-0.37
2023-01-19T07:14:38.526Z,-0.39
2023-01-19T07:17:04.981Z,-0.39
2023-01-19T07:19:31.452Z,-0.37
2023-01-19T07:21:57.924Z,-0.45
2023-01-19T07:24:24.409Z,-0.43
2023-01-19T07:26:50.914Z,-0.45
2023-01-19T07:29:17.581Z,-0.44
2023-01-19T07:31:44.142Z,-0.54
2023-01-19T07:34:12.480Z,-0.61
2023-01-19T07:36:39.362Z,-0.64
2023-01-19T07:39:05.871Z,-0.63
2023-01-19T07:41:32.540Z,-0.64
2023-01-19T07:43:59.036Z,-0.59
2023-01-19T07:46:25.555Z,-0.65
2023-01-19T07:48:52.128Z,-0.68
2023-01-19T07:51:18.882Z,-0.65
2023-01-19T07:53:45.962Z,-0.60
2023-01-19T07:56:12.468Z,-0.63
2023-01-19T07:58:39.303Z,-0.61
2023-01-19T08:01:10.229Z,-0.64
2023-01-19T08:03:36.910Z,-0.76
2023-01-19T08:06:05.204Z,-0.77
2023-01-19T08:08:32.545Z,-0.76
2023-01-19T08:10:59.017Z,-0.80
2023-01-19T08:13:25.921Z,-0.67
2023-01-19T08:15:52.935Z,-0.80
2023-01-19T08:18:19.857Z,-0.78
2023-01-19T08:20:46.353Z,-0.80
2023-01-19T08:23:12.826Z,-0.80
2023-01-19T08:25:42.214Z,-0.84
2023-01-19T08:28:08.717Z,-0.81
2023-01-19T08:30:35.575Z,-0.81
2023-01-19T08:33:05.042Z,-0.83
2023-01-19T08:35:31.834Z,-0.85
2023-01-19T08:38:01.170Z,-0.82
2023-01-19T08:40:29.163Z,-0.80
2023-01-19T08:43:04.737Z,-0.88
2023-01-19T08:45:31.267Z,-0.83
2023-01-19T08:47:59.117Z,-0.81
2023-01-19T08:50:29.352Z,-0.78
2023-01-19T08:52:59.938Z,-0.77
2023-01-19T08:55:26.776Z,-0.70
2023-01-19T08:57:53.840Z,-0.67
2023-01-19T09:00:20.885Z,-0.67
2023-01-19T09:02:47.605Z,-0.74
2023-01-19T09:05:14.144Z,-0.75
2023-01-19T09:07:41.608Z,-0.66
2023-01-19T09:10:08.784Z,-0.67
2023-01-19T09:12:35.288Z,-0.70
2023-01-19T09:15:01.759Z,-0.55
2023-01-19T09:17:28.440Z,-0.53
2023-01-19T09:19:54.924Z,-0.56
2023-01-19T09:22:21.531Z,-0.53
2023-01-19T09:25:21.999Z,-0.56
2023-01-19T09:27:48.418Z,-0.50
2023-01-19T09:30:14.864Z,-0.54
2023-01-19T09:32:42.758Z,-0.52
2023-01-19T09:35:09.319Z,-0.48
2023-01-19T09:37:35.805Z,-0.42
2023-01-19T09:40:02.398Z,-0.42
2023-01-19T09:42:37.897Z,-0.37
2023-01-19T09:45:08.109Z,-0.26
2023-01-19T09:47:34.594Z,-0.18
2023-01-19T09:50:06.755Z,-0.17
2023-01-19T09:52:35.632Z,-0.10
2023-01-19T09:55:02.091Z,0.07
2023-01-19T09:57:29.942Z,0.04
2023-01-19T09:59:59.460Z,0.00
2023-01-19T10:02:44.834Z,-0.03
2023-01-19T10:05:31.564Z,-0.07
2023-01-19T10:08:13.312Z,-0.05
2023-01-19T10:10:41.155Z,0.00
2023-01-19T10:13:26.344Z,-0.01
2023-01-19T10:16:01.736Z,0.01
2023-01-19T10:18:48.667Z,0.20
2023-01-19T10:21:39.439Z,0.19
2023-01-19T10:24:18.247Z,0.28
2023-01-19T10:26:49.776Z,0.43
2023-01-19T10:29:16.059Z,0.50
2023-01-19T10:31:42.577Z,0.29
2023-01-19T10:34:13.262Z,0.34
2023-01-19T10:36:39.756Z,0.48
2023-01-19T10:39:06.727Z,0.33
2023-01-19T10:41:52.316Z,0.31
2023-01-19T10:44:23.976Z,0.38
2023-01-19T10:46:50.455Z,0.33
2023-01-19T10:49:33.760Z,0.40
2023-01-19T10:52:00.292Z,0.26
2023-01-19T10:54:27.881Z,0.41
2023-01-19T10:56:58.307Z,0.33
2023-01-19T10:59:34.433Z,0.31
2023-01-19T11:02:20.257Z,0.30
2023-01-19T11:04:50.143Z,0.31
2023-01-19T11:07:23.528Z,0.45
2023-01-19T11:09:50.121Z,0.49
2023-01-19T11:12:20.694Z,0.49
2023-01-19T11:14:47.544Z,0.62
2023-01-19T11:17:25.246Z,0.61
2023-01-19T11:19:59.287Z,0.71
2023-01-19T11:22:27.725Z,0.56
2023-01-19T11:24:58.041Z,0.56
2023-01-19T11:27:24.518Z,0.68
2023-01-19T11:30:01.805Z,0.61
2023-01-19T11:32:28.294Z,0.57
2023-01-19T11:34:54.794Z,0.56
2023-01-19T11:37:21.105Z,0.59
2023-01-19T11:39:57.992Z,0.50
2023-01-19T11:42:24.741Z,0.56
2023-01-19T11:45:07.860Z,0.50
2023-01-19T11:47:41.988Z,0.56
2023-01-19T11:50:15.884Z,0.67
2023-01-19T11:52:48.624Z,0.59
2023-01-19T11:55:36.638Z,0.55
2023-01-19T11:58:03.797Z,0.65
2023-01-19T12:00:44.279Z,0.64
2023-01-19T12:03:32.845Z,0.64
2023-01-19T12:06:23.801Z,0.60
2023-01-19T12:08:53.621Z,0.67
2023-01-19T12:11:25.111Z,0.61
2023-01-19T12:13:53.755Z,0.67
2023-01-19T12:16:21.798Z,0.60
2023-01-19T12:18:51.094Z,0.64
2023-01-19T12:21:17.694Z,0.70
2023-01-19T12:23:59.574Z,0.66
2023-01-19T12:26:41.536Z,0.74
2023-01-19T12:29:17.278Z,0.66
2023-01-19T12:31:43.976Z,0.73
2023-01-19T12:34:27.121Z,0.58
2023-01-19T12:36:53.628Z,0.55
2023-01-19T12:39:21.019Z,0.55
2023-01-19T12:41:47.865Z,0.57
2023-01-19T12:44:19.040Z,0.60
2023-01-19T12:47:06.383Z,0.59
2023-01-19T12:49:39.075Z,0.64
2023-01-19T12:52:41.064Z,0.55
2023-01-19T12:55:13.658Z,0.51
2023-01-19T12:58:23.588Z,0.63
2023-01-19T13:00:51.765Z,0.70
2023-01-19T13:03:18.064Z,0.68
2023-01-19T13:05:44.346Z,0.71
2023-01-19T13:08:12.360Z,0.62
2023-01-19T13:11:10.298Z,0.66
2023-01-19T13:13:43.735Z,0.68
2023-01-19T13:16:19.288Z,0.73
2023-01-19T13:18:50.634Z,0.83
2023-01-19T13:21:46.925Z,0.74
2023-01-19T13:24:15.029Z,0.64
2023-01-19T13:26:48.586Z,0.66
2023-01-19T13:29:22.805Z,0.67
2023-01-19T13:31:49.650Z,0.77
2023-01-19T13:34:18.689Z,0.76
2023-01-19T13:36:46.554Z,0.88
2023-01-19T13:39:34.966Z,0.94
2023-01-19T13:42:02.731Z,0.89
2023-01-19T13:44:36.213Z,0.91
2023-01-19T13:47:03.472Z,0.94
2023-01-19T13:49:35.232Z,0.99
2023-01-19T13:52:12.509Z,1.07
2023-01-19T13:54:47.911Z,1.01
2023-01-19T13:57:29.628Z,1.03
2023-01-19T14:00:14.744Z,0.96
2023-01-19T14:03:00.475Z,1.04
2023-01-19T14:05:38.024Z,1.10
2023-01-19T14:08:11.309Z,1.04
2023-01-19T14:10:50.203Z,1.13
2023-01-19T14:13:21.169Z,1.11
2023-01-19T14:15:48.763Z,1.17
2023-01-19T14:18:18.505Z,1.13
2023-01-19T14:21:06.040Z,1.03
2023-01-19T14:23:47.413Z,1.11
2023-01-19T14:26:46.210Z,1.09
2023-01-19T14:29:21.703Z,1.15
2023-01-19T14:31:49.986Z,1.07
2023-01-19T14:34:32.309Z,1.06
2023-01-19T14:36:58.830Z,1.13
2023-01-19T14:39:27.342Z,1.12
2023-01-19T14:41:54.205Z,1.15
2023-01-19T14:44:32.944Z,1.09
2023-01-19T14:46:59.648Z,1.10
2023-01-19T14:49:39.539Z,1.06
2023-01-19T14:52:36.019Z,1.04
2023-01-19T14:55:03.800Z,1.01
2023-01-19T14:57:30.280Z,1.10
2023-01-19T14:59:56.779Z,0.95
2023-01-19T15:02:23.347Z,1.06
2023-01-19T15:04:53.799Z,1.10
2023-01-19T15:07:20.279Z,0.96
2023-01-19T15:09:47.135Z,0.90
2023-01-19T15:12:16.603Z,0.93
2023-01-19T15:14:43.733Z,0.90
2023-01-19T15:17:16.272Z,0.95
2023-01-19T15:19:42.745Z,0.85
2023-01-19T15:22:14.745Z,0.87
2023-01-19T15:24:41.267Z,0.91
2023-01-19T15:27:11.821Z,0.83
2023-01-19T15:29:40.165Z,0.88
2023-01-19T15:32:11.362Z,0.72
2023-01-19T15:34:38.242Z,0.72
2023-01-19T15:37:04.899Z,0.74
2023-01-19T15:39:32.121Z,0.62
2023-01-19T15:41:59.039Z,0.61
2023-01-19T15:44:25.601Z,0.62
2023-01-19T15:46:54.476Z,0.58
2023-01-19T15:49:21.495Z,0.52
2023-01-19T15:51:48.008Z,0.54
2023-01-19T15:54:14.840Z,0.53
2023-01-19T15:56:42.663Z,0.51
2023-01-19T15:59:09.272Z,0.46
2023-01-19T16:01:36.240Z,0.39
2023-01-19T16:04:04.291Z,0.31
2023-01-19T16:06:31.024Z,0.30
2023-01-19T16:09:01.659Z,0.26
2023-01-19T16:11:32.077Z,0.24
2023-01-19T16:13:58.422Z,0.23
2023-01-19T16:16:25.217Z,0.29
2023-01-19T16:18:51.972Z,0.28
2023-01-19T16:21:18.938Z,0.19
2023-01-19T16:23:45.455Z,0.12
2023-01-19T16:26:28.409Z,0.14
2023-01-19T16:28:58.909Z,0.00
2023-01-19T16:31:25.692Z,-0.02
2023-01-19T16:33:52.254Z,-0.08
2023-01-19T16:36:20.403Z,-0.13
2023-01-19T16:38:47.618Z,-0.17
2023-01-19T16:41:14.122Z,-0.12
2023-01-19T16:43:40.579Z,-0.04
2023-01-19T16:46:07.123Z,0.34
2023-01-19T16:48:33.667Z,0.05
2023-01-19T16:51:03.822Z,0.05
2023-01-19T16:53:30.273Z,-0.08
2023-01-19T16:55:57.200Z,-0.19
2023-01-19T16:58:23.756Z,-0.12
2023-01-19T17:00:50.662Z,-0.13
2023-01-19T17:03:17.229Z,-0.19
2023-01-19T17:05:48.832Z,-0.21
2023-01-19T17:08:15.700Z,-0.21
2023-01-19T17:10:43.638Z,-0.36
2023-01-19T17:13:10.159Z,-0.36
2023-01-19T17:15:36.677Z,-0.30
2023-01-19T17:18:03.705Z,-0.29
2023-01-19T17:20:30.216Z,-0.19
2023-01-19T17:22:56.685Z,-0.16
2023-01-19T17:25:23.368Z,-0.12
2023-01-19T17:27:49.948Z,-0.05
2023-01-19T17:30:16.760Z,0.11
2023-01-19T17:32:43.252Z,0.11
2023-01-19T17:35:10.402Z,0.19
2023-01-19T17:37:36.943Z,0.12
2023-01-19T17:40:04.145Z,0.20
2023-01-19T17:42:30.630Z,0.20
2023-01-19T17:44:57.103Z,0.23
2023-01-19T17:47:25.869Z,0.24
2023-01-19T17:49:52.417Z,0.18
2023-01-19T17:52:18.892Z,0.15
2023-01-19T17:54:45.384Z,0.15
2023-01-19T17:57:11.850Z,0.24
2023-01-19T17:59:40.883Z,0.37
2023-01-19T18:02:09.117Z,0.33
2023-01-19T18:04:38.225Z,0.27
2023-01-19T18:07:04.705Z,0.21
2023-01-19T18:09:31.229Z,0.12
2023-01-19T18:11:57.819Z,0.16
2023-01-19T18:14:24.562Z,0.21
2023-01-19T18:16:52.587Z,0.18
2023-01-19T18:19:22.100Z,0.14
2023-01-19T18:21:48.624Z,0.05
2023-01-19T18:24:15.100Z,0.11
2023-01-19T18:26:42.535Z,0.30
2023-01-19T18:29:09.102Z,0.19
2023-01-19T18:31:35.819Z,0.14
2023-01-19T18:34:02.836Z,0.36
2023-01-19T18:36:32.180Z,0.35
2023-01-19T18:38:58.651Z,0.23
2023-01-19T18:41:25.166Z,0.15
2023-01-19T18:43:53.494Z,0.20
2023-01-19T18:46:21.534Z,0.18
2023-01-19T18:48:48.134Z,0.25
2023-01-19T18:51:15.522Z,0.15
2023-01-19T18:53:42.475Z,0.13
2023-01-19T18:56:13.072Z,0.37
2023-01-19T18:58:39.801Z,0.27
2023-01-19T19:01:26.390Z,0.21
2023-01-19T19:03:53.447Z,0.25
2023-01-19T19:06:20.901Z,0.20
2023-01-19T19:08:50.860Z,0.38
2023-01-19T19:11:21.534Z,0.25
2023-01-19T19:14:00.933Z,0.23
2023-01-19T19:16:27.446Z,0.34
2023-01-19T19:18:54.090Z,0.21
2023-01-19T19:21:21.352Z,0.36
2023-01-19T19:23:54.919Z,0.28
2023-01-19T19:26:21.594Z,0.23
2023-01-19T19:28:48.076Z,0.18
2023-01-19T19:31:16.765Z,0.23
2023-01-19T19:33:43.258Z,0.22
2023-01-19T19:36:10.062Z,0.36
2023-01-19T19:38:36.904Z,0.21
2023-01-19T19:41:12.489Z,0.22
2023-01-19T19:43:39.067Z,0.41
2023-01-19T19:46:07.395Z,0.46
2023-01-19T19:48:34.141Z,0.31
2023-01-19T19:51:18.203Z,0.22
2023-01-19T19:53:45.272Z,0.27
2023-01-19T19:56:13.146Z,0.25
2023-01-19T19:58:39.757Z,0.18
2023-01-19T20:01:13.792Z,0.25
2023-01-19T20:03:40.643Z,0.17
2023-01-19T20:06:11.411Z,0.19
2023-01-19T20:08:37.924Z,0.25
2023-01-19T20:11:15.590Z,0.31
2023-01-19T20:13:42.923Z,0.25
2023-01-19T20:16:11.450Z,0.26
2023-01-19T20:18:38.829Z,0.33
2023-01-19T20:21:16.227Z,0.27
2023-01-19T20:23:42.840Z,0.24
2023-01-19T20:26:10.236Z,0.34
2023-01-19T20:28:37.036Z,0.28
2023-01-19T20:31:24.513Z,0.20
2023-01-19T20:33:51.493Z,0.30
2023-01-19T20:36:18.192Z,0.21
2023-01-19T20:38:44.722Z,0.16
2023-01-19T20:41:11.744Z,0.22
2023-01-19T20:43:38.314Z,0.19
2023-01-19T20:46:04.980Z,0.21
2023-01-19T20:48:31.511Z,0.19
2023-01-19T20:51:02.375Z,0.34
2023-01-19T20:53:29.056Z,0.21
2023-01-19T20:55:55.544Z,0.21
2023-01-19T20:58:22.121Z,0.25
2023-01-19T21:00:48.694Z,0.18
2023-01-19T21:03:15.237Z,0.31
2023-01-19T21:05:41.707Z,0.28
2023-01-19T21:08:08.938Z,0.28
2023-01-19T21:10:35.400Z,0.23
2023-01-19T21:13:01.942Z,0.23
2023-01-19T21:15:28.416Z,0.29
2023-01-19T21:17:57.223Z,0.19
2023-01-19T21:20:23.974Z,0.19
2023-01-19T21:22:51.189Z,0.24
2023-01-19T21:25:17.649Z,0.17
2023-01-19T21:27:44.118Z,0.09
2023-01-19T21:30:10.942Z,0.07
2023-01-19T21:32:37.409Z,0.15
2023-01-19T21:35:04.090Z,0.07
2023-01-19T21:37:31.077Z,0.12
2023-01-19T21:39:57.619Z,0.13
2023-01-19T21:42:24.118Z,0.05
2023-01-19T21:44:50.667Z,0.09
2023-01-19T21:47:17.163Z,0.11
2023-01-19T21:49:43.719Z,0.15
2023-01-19T21:52:10.217Z,0.03
2023-01-19T21:54:36.757Z,0.02
2023-01-19T21:57:03.305Z,0.02
2023-01-19T21:59:29.795Z,0.20
2023-01-19T22:01:56.546Z,0.14
2023-01-19T22:04:23.154Z,0.11
2023-01-19T22:06:49.712Z,0.05
2023-01-19T22:09:16.233Z,-0.03
2023-01-19T22:11:42.736Z,-0.07
2023-01-19T22:14:10.685Z,0.00
2023-01-19T22:16:37.227Z,-0.01
2023-01-19T22:19:03.859Z,-0.10
2023-01-19T22:21:31.892Z,-0.11
2023-01-19T22:23:59.299Z,-0.08
2023-01-19T22:26:27.368Z,-0.06
2023-01-19T22:28:59.171Z,-0.13
2023-01-19T22:31:26.598Z,-0.10
2023-01-19T22:33:53.850Z,-0.09
2023-01-19T22:36:24.655Z,-0.19
2023-01-19T22:38:52.074Z,-0.25
2023-01-19T22:41:19.995Z,-0.20
2023-01-19T22:43:47.233Z,-0.21
2023-01-19T22:46:16.680Z,-0.22
2023-01-19T22:48:43.687Z,-0.23
2023-01-19T22:51:10.561Z,-0.25
2023-01-19T22:53:37.511Z,-0.30
2023-01-19T22:56:11.681Z,-0.32
2023-01-19T22:58:40.378Z,-0.18
2023-01-19T23:01:13.642Z,-0.25
2023-01-19T23:03:40.227Z,-0.29
2023-01-19T23:06:08.800Z,-0.27
2023-01-19T23:08:35.330Z,-0.06
2023-01-19T23:11:27.700Z,-0.12
2023-01-19T23:13:54.189Z,-0.19
2023-01-19T23:16:20.941Z,-0.16
2023-01-19T23:18:47.455Z,-0.28
2023-01-19T23:21:15.771Z,-0.29
2023-01-19T23:23:42.357Z,-0.29
2023-01-19T23:26:13.343Z,-0.37
2023-01-19T23:28:39.841Z,-0.28
2023-01-19T23:31:24.363Z,-0.24
2023-01-19T23:33:51.760Z,-0.24
2023-01-19T23:36:18.333Z,-0.22
2023-01-19T23:38:55.199Z,-0.40
2023-01-19T23:41:22.079Z,-0.39
2023-01-19T23:43:48.665Z,-0.41
2023-01-19T23:46:15.263Z,-0.45
2023-01-19T23:48:41.778Z,-0.41
2023-01-19T23:51:22.405Z,-0.37
2023-01-19T23:53:48.986Z,-0.14
2023-01-19T23:56:25.880Z,-0.28
2023-01-19T23:59:00.055Z,-0.31
